Time;durP1;ratioP1;P1;durP2;ratioP2;P2;SDS_P1;SDS_P2;PMS_P1;PMS_P2;Temp;Humidity;BMP_temperature;BMP_pressure;BME280_temperature;BME280_humidity;BME280_pressure;Samples;Min_cycle;Max_cycle;Signal;HPM_P1;HPM_P2
2023/07/21 00:00:47;;;;;;;5.63;2.60;;;18.20;99.90;;;;;;2604303;47;20085;31
2023/07/21 00:03:27;;;;;;;4.60;2.25;;;18.10;99.90;;;;;;2604506;47;20026;31
2023/07/21 00:06:07;;;;;;;3.47;2.20;;;18.10;99.90;;;;;;2585072;54;20923;31
2023/07/21 00:08:43;;;;;;;6.85;2.40;;;18.10;99.90;;;;;;2597624;47;20753;31
2023/07/21 00:11:23;;;;;;;3.42;2.40;;;18.10;99.90;;;;;;2585928;54;20856;31
2023/07/21 00:13:59;;;;;;;2.63;2.27;;;18.10;99.90;;;;;;2585942;54;20911;31
2023/07/21 00:16:38;;;;;;;3.50;2.20;;;18.10;99.90;;;;;;2585559;54;20106;31
2023/07/21 00:19:30;;;;;;;3.63;2.33;;;18.10;99.90;;;;;;2584811;54;20054;31
2023/07/21 00:22:10;;;;;;;3.10;2.10;;;18.10;99.90;;;;;;2586173;54;20089;31
2023/07/21 00:24:47;;;;;;;2.75;2.00;;;18.10;99.90;;;;;;2605243;46;21223;31
2023/07/21 00:27:22;;;;;;;2.78;2.33;;;18.10;99.90;;;;;;2586827;54;20112;31
2023/07/21 00:29:58;;;;;;;4.88;2.22;;;18.10;99.90;;;;;;2586865;54;20050;31
2023/07/21 00:32:35;;;;;;;4.50;2.08;;;18.10;99.90;;;;;;2585898;54;20947;31
2023/07/21 00:35:16;;;;;;;3.05;2.45;;;18.10;99.90;;;;;;2585716;54;20165;31
2023/07/21 00:38:00;;;;;;;4.32;2.40;;;18.10;99.90;;;;;;2586533;54;20108;31
2023/07/21 00:43:25;;;;;;;4.53;2.10;;;18.10;99.90;;;;;;2586730;54;20918;31
2023/07/21 00:46:05;;;;;;;2.70;1.97;;;18.10;99.90;;;;;;2604992;46;20029;31
2023/07/21 00:51:28;;;;;;;3.90;2.20;;;18.10;99.90;;;;;;2586721;54;20050;31
2023/07/21 00:54:13;;;;;;;7.20;2.60;;;18.10;99.90;;;;;;2586862;54;20851;31
2023/07/21 00:56:51;;;;;;;2.80;2.30;;;18.10;99.90;;;;;;2586409;54;20090;31
2023/07/21 00:59:33;;;;;;;2.85;2.33;;;18.10;99.90;;;;;;2586344;54;20790;31
2023/07/21 01:02:27;;;;;;;7.35;2.90;;;18.10;99.90;;;;;;2585621;54;20033;31
2023/07/21 01:05:12;;;;;;;4.80;2.30;;;18.10;99.90;;;;;;2684299;39;21545;31
2023/07/21 01:10:31;;;;;;;3.10;2.10;;;18.00;99.90;;;;;;2586125;54;20917;31
2023/07/21 01:13:09;;;;;;;3.30;2.37;;;17.90;99.90;;;;;;2585494;54;20040;31
2023/07/21 01:15:51;;;;;;;3.33;2.63;;;17.90;99.90;;;;;;2585518;54;20586;31
2023/07/21 01:18:28;;;;;;;3.58;2.72;;;17.80;99.90;;;;;;2594290;46;20891;31
2023/07/21 01:21:06;;;;;;;4.07;2.80;;;17.80;99.90;;;;;;2585609;54;20865;31
2023/07/21 01:23:48;;;;;;;3.35;2.40;;;17.80;99.90;;;;;;2586541;54;20027;31
2023/07/21 01:26:29;;;;;;;6.40;2.70;;;17.70;99.90;;;;;;2586605;54;20862;31
2023/07/21 01:29:10;;;;;;;4.40;2.92;;;17.70;99.90;;;;;;2605358;46;20743;31
2023/07/21 01:31:44;;;;;;;5.35;2.85;;;17.60;99.90;;;;;;2586494;54;21224;31
2023/07/21 01:34:20;;;;;;;5.17;2.77;;;17.60;99.90;;;;;;2585928;54;20030;31
2023/07/21 01:36:56;;;;;;;4.65;3.08;;;17.50;99.90;;;;;;2604837;46;20038;31
2023/07/21 01:39:34;;;;;;;5.10;2.70;;;17.50;99.90;;;;;;2586588;54;20030;31
2023/07/21 01:42:14;;;;;;;4.20;3.30;;;17.50;99.90;;;;;;2586310;54;20883;31
2023/07/21 01:44:51;;;;;;;4.00;3.33;;;17.40;99.90;;;;;;2586349;54;20027;31
2023/07/21 01:47:34;;;;;;;6.40;2.95;;;17.40;99.90;;;;;;2702728;39;21479;31
2023/07/21 01:50:13;;;;;;;4.07;3.40;;;17.40;99.90;;;;;;2586307;54;20649;31
2023/07/21 01:52:47;;;;;;;3.70;3.07;;;17.30;99.90;;;;;;2604570;46;20154;31
2023/07/21 01:55:29;;;;;;;5.30;3.75;;;17.30;99.90;;;;;;2586525;54;20242;31
2023/07/21 01:58:09;;;;;;;5.25;3.20;;;17.30;99.90;;;;;;2586244;54;20030;31
2023/07/21 02:00:46;;;;;;;7.30;3.58;;;17.20;99.90;;;;;;2586186;54;20863;31
2023/07/21 02:06:18;;;;;;;4.40;3.55;;;17.10;99.90;;;;;;2585467;54;20308;31
2023/07/21 02:08:57;;;;;;;5.68;3.92;;;17.10;99.90;;;;;;2586144;54;20022;31
2023/07/21 02:11:38;;;;;;;5.17;3.77;;;17.10;99.90;;;;;;2586459;54;20038;31
2023/07/21 02:14:36;;;;;;;3.93;3.40;;;17.00;99.90;;;;;;2586284;46;21443;31
2023/07/21 02:17:16;;;;;;;5.82;3.50;;;17.00;99.90;;;;;;2586378;54;20581;31
2023/07/21 02:19:52;;;;;;;4.47;4.07;;;17.00;99.90;;;;;;2586202;54;20037;31
2023/07/21 02:22:28;;;;;;;6.90;3.90;;;17.00;99.90;;;;;;2585503;54;20866;31
2023/07/21 02:25:05;;;;;;;4.50;4.10;;;17.00;99.90;;;;;;2586343;54;20895;31
2023/07/21 02:27:43;;;;;;;4.13;3.72;;;17.00;99.90;;;;;;2586145;54;20050;31
2023/07/21 02:30:23;;;;;;;6.50;4.00;;;16.90;99.90;;;;;;2604518;46;20026;31
2023/07/21 02:33:01;;;;;;;7.40;4.05;;;16.90;99.90;;;;;;2604263;46;20026;31
2023/07/21 02:35:37;;;;;;;6.63;3.67;;;16.80;99.90;;;;;;2702517;39;20455;31
2023/07/21 02:38:13;;;;;;;5.75;3.95;;;16.80;99.90;;;;;;2604800;46;20027;31
2023/07/21 02:40:51;;;;;;;5.13;3.60;;;16.80;99.90;;;;;;2586265;54;20928;31
2023/07/21 02:43:29;;;;;;;3.47;2.57;;;16.80;99.90;;;;;;2585358;54;20927;31
2023/07/21 02:46:06;;;;;;;6.45;3.30;;;16.80;99.90;;;;;;2597767;46;21307;31
2023/07/21 02:48:43;;;;;;;4.70;3.45;;;16.70;99.90;;;;;;2585825;54;20026;31
2023/07/21 02:51:22;;;;;;;4.05;3.65;;;16.70;99.90;;;;;;2586382;54;20715;31
2023/07/21 02:54:02;;;;;;;4.15;3.40;;;16.70;99.90;;;;;;2586100;54;20033;31
2023/07/21 02:56:39;;;;;;;4.95;3.17;;;16.70;99.90;;;;;;2586184;54;20871;31
2023/07/21 02:59:26;;;;;;;5.13;3.83;;;16.60;99.90;;;;;;2586279;54;20077;31
2023/07/21 03:02:08;;;;;;;4.97;4.32;;;16.60;99.90;;;;;;2604512;46;20759;31
2023/07/21 03:05:06;;;;;;;3.57;3.27;;;16.50;99.90;;;;;;2585862;54;20745;31
2023/07/21 03:07:40;;;;;;;5.05;3.97;;;16.60;99.90;;;;;;2585831;54;20980;31
2023/07/21 03:10:21;;;;;;;5.55;3.30;;;16.60;99.90;;;;;;2585481;54;20035;31
2023/07/21 03:12:57;;;;;;;6.43;3.23;;;16.60;99.90;;;;;;2586250;54;20145;31
2023/07/21 03:15:40;;;;;;;3.58;3.10;;;16.60;99.90;;;;;;2586125;54;20049;31
2023/07/21 03:18:22;;;;;;;6.00;3.13;;;16.60;99.90;;;;;;2586120;54;20081;31
2023/07/21 03:21:17;;;;;;;4.20;3.75;;;16.60;99.90;;;;;;2585934;54;20865;31
2023/07/21 03:23:58;;;;;;;5.40;3.50;;;16.50;99.90;;;;;;2586259;54;20923;31
2023/07/21 03:26:34;;;;;;;5.68;4.05;;;16.50;99.90;;;;;;2586062;54;20027;31
2023/07/21 03:29:15;;;;;;;4.57;3.67;;;16.50;99.90;;;;;;2586215;54;20576;31
2023/07/21 03:31:55;;;;;;;5.70;4.03;;;16.40;99.90;;;;;;2586042;54;20744;31
2023/07/21 03:34:36;;;;;;;11.48;4.32;;;16.40;99.90;;;;;;2585761;54;20853;31
2023/07/21 03:37:16;;;;;;;5.70;3.85;;;16.40;99.90;;;;;;2585981;54;20037;31
2023/07/21 03:39:54;;;;;;;4.55;3.17;;;16.40;99.90;;;;;;2585571;54;20030;31
2023/07/21 03:42:34;;;;;;;4.80;3.85;;;16.40;99.90;;;;;;2604551;47;21017;31
2023/07/21 03:45:14;;;;;;;4.18;3.78;;;16.40;99.90;;;;;;2586090;54;20989;31
2023/07/21 03:47:51;;;;;;;5.25;3.67;;;16.50;99.90;;;;;;2604888;47;20848;31
2023/07/21 03:50:31;;;;;;;4.70;3.72;;;16.60;99.90;;;;;;2585898;54;20144;31
2023/07/21 03:53:05;;;;;;;4.30;3.75;;;16.70;99.90;;;;;;2585744;54;20929;31
2023/07/21 03:55:43;;;;;;;3.53;3.22;;;16.80;99.90;;;;;;2585850;54;20851;31
2023/07/21 03:58:23;;;;;;;4.00;3.27;;;16.90;99.90;;;;;;2605104;47;20109;31
2023/07/21 04:01:10;;;;;;;3.77;3.20;;;17.00;99.90;;;;;;2586899;54;20323;31
2023/07/21 04:03:44;;;;;;;4.30;2.90;;;17.20;99.90;;;;;;2586569;54;20031;31
2023/07/21 04:06:24;;;;;;;4.03;3.58;;;17.30;99.90;;;;;;2586654;54;20022;31
2023/07/21 04:09:02;;;;;;;5.63;3.13;;;17.60;99.90;;;;;;2586813;54;20022;31
2023/07/21 04:11:38;;;;;;;5.60;3.60;;;17.70;99.90;;;;;;2586898;54;20259;31
2023/07/21 04:14:24;;;;;;;6.35;3.60;;;17.90;99.90;;;;;;2586826;54;20912;31
2023/07/21 04:17:01;;;;;;;6.63;3.67;;;18.00;99.90;;;;;;2587028;54;20062;31
2023/07/21 04:19:44;;;;;;;6.68;4.00;;;18.20;99.90;;;;;;2605356;46;20850;31
2023/07/21 04:22:25;;;;;;;7.00;3.35;;;18.30;99.90;;;;;;2597803;46;20937;31
2023/07/21 04:25:04;;;;;;;5.30;3.63;;;18.50;99.90;;;;;;2605165;46;20862;31
2023/07/21 04:27:45;;;;;;;3.10;2.83;;;18.50;99.90;;;;;;2586671;54;20149;31
2023/07/21 04:30:24;;;;;;;8.40;3.35;;;18.60;99.90;;;;;;2605105;46;20111;31
2023/07/21 04:33:06;;;;;;;6.88;3.15;;;18.90;99.90;;;;;;2589202;46;20022;31
2023/07/21 04:35:46;;;;;;;3.65;3.20;;;19.00;99.90;;;;;;2592431;46;20907;31
2023/07/21 04:38:56;;;;;;;4.10;3.27;;;19.10;99.90;;;;;;2586383;54;20064;31
2023/07/21 04:41:33;;;;;;;5.93;2.93;;;19.30;99.90;;;;;;2586684;54;20034;31
2023/07/21 04:44:10;;;;;;;5.25;2.55;;;19.50;99.90;;;;;;2586582;54;20027;31
2023/07/21 04:46:48;;;;;;;6.43;3.33;;;19.70;99.90;;;;;;2585981;54;20854;31
2023/07/21 04:49:30;;;;;;;4.70;2.90;;;19.80;99.90;;;;;;2586731;54;20065;31
2023/07/21 04:52:06;;;;;;;5.32;2.90;;;19.90;99.90;;;;;;2586637;54;20022;31
2023/07/21 04:54:48;;;;;;;4.95;3.65;;;20.10;99.90;;;;;;2586484;54;20855;31
2023/07/21 04:57:26;;;;;;;5.38;3.30;;;20.20;99.90;;;;;;2684196;39;20697;31
2023/07/21 05:00:06;;;;;;;4.40;2.60;;;20.30;99.90;;;;;;2586456;54;20823;31
2023/07/21 05:02:49;;;;;;;3.53;2.75;;;20.50;99.90;;;;;;2586658;54;20770;31
2023/07/21 05:05:27;;;;;;;4.07;2.70;;;20.60;99.90;;;;;;2604934;46;20981;31
2023/07/21 05:08:04;;;;;;;3.58;2.53;;;20.80;99.90;;;;;;2605002;46;20158;31
2023/07/21 05:10:46;;;;;;;4.40;2.50;;;20.90;99.90;;;;;;2586287;54;20034;31
2023/07/21 05:13:27;;;;;;;2.88;2.20;;;21.10;99.90;;;;;;2684486;39;21635;31
2023/07/21 05:16:23;;;;;;;4.95;2.63;;;21.30;99.90;;;;;;2605002;46;20033;31
2023/07/21 05:19:20;;;;;;;2.92;2.20;;;21.50;99.90;;;;;;2586726;54;20878;31
2023/07/21 05:22:18;;;;;;;3.88;1.70;;;21.80;99.90;;;;;;2586526;54;20029;31
2023/07/21 05:24:56;;;;;;;1.60;1.33;;;21.90;99.90;;;;;;2586653;54;20030;31
2023/07/21 05:27:37;;;;;;;3.15;1.70;;;22.10;99.90;;;;;;2586779;54;19935;31
2023/07/21 05:30:16;;;;;;;3.45;1.80;;;22.30;99.90;;;;;;2586393;54;20033;31
2023/07/21 05:33:03;;;;;;;2.97;1.17;;;22.50;99.90;;;;;;2586396;54;20026;31
2023/07/21 05:35:44;;;;;;;2.38;1.30;;;22.70;99.90;;;;;;2586574;54;20749;31
2023/07/21 05:38:28;;;;;;;5.28;1.30;;;22.70;99.90;;;;;;2585537;54;20037;31
2023/07/21 05:41:07;;;;;;;3.58;1.33;;;22.90;99.90;;;;;;2586445;54;19935;31
2023/07/21 05:43:48;;;;;;;1.85;1.30;;;23.00;99.90;;;;;;2604750;46;20034;31
2023/07/21 05:46:26;;;;;;;1.90;1.45;;;23.20;99.90;;;;;;2586354;54;20984;31
2023/07/21 05:49:10;;;;;;;5.53;2.10;;;23.20;99.90;;;;;;2605014;46;20920;31
2023/07/21 05:51:50;;;;;;;1.90;1.27;;;23.50;99.90;;;;;;2605055;46;20107;31
2023/07/21 05:54:46;;;;;;;2.85;1.30;;;23.70;99.90;;;;;;2586258;54;20860;31
2023/07/21 05:57:21;;;;;;;1.50;1.00;;;23.90;99.90;;;;;;2586480;54;20023;31
2023/07/21 05:59:59;;;;;;;2.30;1.40;;;24.10;99.90;;;;;;2586389;54;20050;31
2023/07/21 06:02:49;;;;;;;5.87;1.20;;;24.20;99.90;;;;;;2586636;54;20814;31
2023/07/21 06:05:25;;;;;;;2.20;1.30;;;24.40;99.90;;;;;;2585283;54;20913;31
2023/07/21 06:08:24;;;;;;;3.83;1.20;;;24.40;99.90;;;;;;2586470;54;20888;31
2023/07/21 06:11:31;;;;;;;2.47;1.10;;;24.60;99.90;;;;;;2702752;39;20725;31
2023/07/21 06:14:32;;;;;;;3.17;1.35;;;24.60;99.90;;;;;;2585928;54;20923;31
2023/07/21 06:17:25;;;;;;;2.07;1.33;;;24.80;99.90;;;;;;2586329;54;20833;31
2023/07/21 06:20:01;;;;;;;2.65;1.05;;;24.80;99.90;;;;;;2585678;54;20026;31
2023/07/21 06:22:44;;;;;;;3.65;1.27;;;25.00;99.90;;;;;;2586125;54;20063;31
2023/07/21 06:25:21;;;;;;;5.43;1.55;;;25.20;99.90;;;;;;2586324;54;20749;31
2023/07/21 06:28:14;;;;;;;1.75;1.05;;;25.30;99.90;;;;;;2586297;54;20883;31
2023/07/21 06:30:53;;;;;;;2.37;1.50;;;25.50;99.90;;;;;;2585855;54;21546;31
2023/07/21 06:33:58;;;;;;;4.80;1.37;;;25.60;99.90;;;;;;2586638;54;20033;31
2023/07/21 06:36:47;;;;;;;4.05;1.38;;;25.70;99.90;;;;;;2586177;54;20141;31
2023/07/21 06:39:53;;;;;;;3.65;1.25;;;26.00;99.90;;;;;;2585943;54;21001;31
2023/07/21 06:42:50;;;;;;;3.15;1.10;;;26.20;99.90;;;;;;2586469;54;20030;31
2023/07/21 06:46:03;;;;;;;2.00;1.05;;;26.30;99.90;;;;;;2586182;54;20038;31
2023/07/21 06:49:17;;;;;;;4.35;1.00;;;26.40;99.90;;;;;;2586178;54;20840;31
2023/07/21 06:52:11;;;;;;;1.90;1.20;;;26.50;99.90;;;;;;2586408;54;20717;31
2023/07/21 06:54:48;;;;;;;2.95;1.25;;;26.60;99.90;;;;;;2586089;54;20266;31
2023/07/21 06:57:24;;;;;;;1.50;0.93;;;26.70;99.90;;;;;;2586297;54;20887;31
2023/07/21 07:00:05;;;;;;;5.27;1.10;;;26.70;99.90;;;;;;2604724;46;20822;31
2023/07/21 07:02:49;;;;;;;5.83;1.13;;;26.60;99.70;;;;;;2586213;54;20027;31
2023/07/21 07:05:28;;;;;;;1.15;0.70;;;26.70;99.90;;;;;;2586148;54;20037;31
2023/07/21 07:08:16;;;;;;;3.25;0.70;;;26.80;99.90;;;;;;2589282;46;20042;31
2023/07/21 07:11:03;;;;;;;3.15;1.55;;;26.80;99.20;;;;;;2585970;54;20050;31
2023/07/21 07:13:47;;;;;;;1.00;0.63;;;26.90;98.80;;;;;;2586343;54;20048;31
2023/07/21 07:19:09;;;;;;;2.30;0.80;;;27.00;97.40;;;;;;2586290;54;20883;31
2023/07/21 07:21:54;;;;;;;3.70;0.70;;;27.00;97.80;;;;;;2585976;54;20026;31
2023/07/21 07:24:46;;;;;;;3.00;0.70;;;27.20;96.00;;;;;;2683932;39;21570;31
2023/07/21 07:27:21;;;;;;;2.00;0.60;;;27.40;96.30;;;;;;2585839;54;20843;31
2023/07/21 07:29:57;;;;;;;2.83;0.95;;;27.60;94.90;;;;;;2604574;47;20030;31
2023/07/21 07:32:39;;;;;;;1.70;0.85;;;27.60;94.30;;;;;;2703029;39;20376;31
2023/07/21 07:35:28;;;;;;;5.25;0.80;;;27.40;92.40;;;;;;2605215;46;20053;31
2023/07/21 07:38:18;;;;;;;1.60;0.60;;;27.20;92.00;;;;;;2587007;54;20858;31
2023/07/21 07:41:09;;;;;;;;;;;;;;;;;;;;;
2023/07/21 07:46:34;;;;;;;2.28;0.70;;;27.20;93.60;;;;;;2684720;39;21471;31
2023/07/21 07:49:12;;;;;;;2.15;0.60;;;27.30;92.10;;;;;;2586687;54;20093;31
2023/07/21 07:52:06;;;;;;;1.50;0.40;;;27.50;92.30;;;;;;2684807;39;21483;31
2023/07/21 07:57:43;;;;;;;1.27;0.55;;;28.00;91.40;;;;;;2586015;54;20146;31
2023/07/21 08:00:25;;;;;;;2.35;0.52;;;28.10;90.50;;;;;;2587019;54;21515;31
2023/07/21 08:09:19;;;;;;;1.50;0.50;;;28.40;86.70;;;;;;2586713;54;20937;31
2023/07/21 08:24:43;;;;;;;1.98;0.50;;;28.70;83.30;;;;;;2586005;54;20943;31
2023/07/21 08:27:36;;;;;;;1.45;0.47;;;28.90;83.70;;;;;;2585881;54;20031;31
2023/07/21 08:30:29;;;;;;;2.40;0.50;;;28.80;82.50;;;;;;2586918;54;20053;31
2023/07/21 08:39:32;;;;;;;1.75;0.70;;;28.50;81.10;;;;;;2587122;54;20819;31
2023/07/21 08:42:23;;;;;;;1.88;0.60;;;28.40;83.10;;;;;;2586314;54;20081;31
2023/07/21 08:45:02;;;;;;;0.50;0.40;;;28.30;80.60;;;;;;2586607;54;20031;31
2023/07/21 08:48:00;;;;;;;1.20;0.40;;;28.20;81.90;;;;;;2605305;46;20054;31
2023/07/21 08:54:09;;;;;;;2.92;0.60;;;27.80;79.30;;;;;;2587012;54;20920;31
2023/07/21 08:56:53;;;;;;;0.55;0.40;;;27.70;80.80;;;;;;2586539;54;20794;31
2023/07/21 08:59:55;;;;;;;4.53;0.50;;;27.60;81.60;;;;;;2605331;46;20045;31
2023/07/21 09:08:05;;;;;;;0.93;0.40;;;27.70;80.30;;;;;;2604397;46;20053;31
2023/07/21 09:10:54;;;;;;;1.23;0.40;;;27.60;81.10;;;;;;2586784;54;20854;31
2023/07/21 09:13:56;;;;;;;;;;;;;;;;;;;;;
2023/07/21 09:16:38;;;;;;;2.15;0.70;;;27.40;79.60;;;;;;2604766;46;20848;31
2023/07/21 09:19:28;;;;;;;0.80;0.40;;;27.40;81.50;;;;;;2684588;39;21446;31
2023/07/21 09:22:31;;;;;;;1.60;0.40;;;27.50;81.20;;;;;;2604872;46;20238;31
2023/07/21 09:25:34;;;;;;;;;;;;;;;;;;;;;
2023/07/21 09:28:24;;;;;;;1.02;0.50;;;27.60;80.00;;;;;;2605054;46;20599;31
2023/07/21 09:31:15;;;;;;;2.35;0.50;;;27.60;81.10;;;;;;2773592;31;20645;31
2023/07/21 09:34:07;;;;;;;1.30;0.45;;;27.80;79.30;;;;;;2586453;54;20822;31
2023/07/21 09:36:46;;;;;;;3.15;0.70;;;27.90;78.20;;;;;;2586550;54;20093;31
2023/07/21 09:39:34;;;;;;;1.85;0.35;;;28.00;79.30;;;;;;2586406;54;20932;31
2023/07/21 09:42:22;;;;;;;2.45;0.47;;;28.00;80.10;;;;;;2587000;54;20097;31
2023/07/21 09:47:55;;;;;;;1.10;0.30;;;28.10;79.50;;;;;;2586435;54;20035;31
2023/07/21 09:50:38;;;;;;;1.43;0.40;;;28.20;80.60;;;;;;2684321;39;21455;31
2023/07/21 09:53:30;;;;;;;0.85;0.45;;;28.30;77.00;;;;;;2586658;54;21162;31
2023/07/21 09:56:29;;;;;;;1.23;0.38;;;28.60;80.70;;;;;;2586310;54;20877;31
2023/07/21 09:59:19;;;;;;;1.50;0.60;;;28.80;76.30;;;;;;2586896;54;20660;31
2023/07/21 10:02:16;;;;;;;3.97;0.60;;;29.20;76.60;;;;;;2586480;54;19934;31
2023/07/21 10:07:54;;;;;;;1.37;0.50;;;29.50;74.30;;;;;;2585473;54;20239;31
2023/07/21 10:13:36;;;;;;;1.10;0.40;;;28.90;74.60;;;;;;2604527;46;20348;31
2023/07/21 10:19:23;;;;;;;1.13;0.33;;;28.40;75.30;;;;;;2585469;54;20030;31
2023/07/21 10:22:14;;;;;;;4.32;0.90;;;28.40;75.50;;;;;;2585581;54;20030;31
2023/07/21 10:24:58;;;;;;;1.77;0.73;;;28.40;76.00;;;;;;2585722;54;20835;31
2023/07/21 10:27:39;;;;;;;;;;;28.60;75.50;;;;;;2586446;54;20029;31
2023/07/21 10:30:29;;;;;;;1.50;0.40;;;28.40;75.00;;;;;;2586296;54;19935;31
2023/07/21 10:33:28;;;;;;;1.20;0.47;;;28.30;74.50;;;;;;2586143;54;20089;31
2023/07/21 10:36:16;;;;;;;1.53;0.50;;;28.30;74.60;;;;;;2604837;46;20916;31
2023/07/21 10:38:53;;;;;;;0.50;0.30;;;28.50;74.40;;;;;;2586744;54;20748;31
2023/07/21 10:41:28;;;;;;;1.63;0.40;;;28.40;73.60;;;;;;2585477;54;20030;31
2023/07/21 10:44:08;;;;;;;2.80;0.40;;;28.40;73.80;;;;;;2586482;54;20971;31
2023/07/21 10:46:50;;;;;;;1.33;0.50;;;28.40;74.70;;;;;;2604576;46;20134;31
2023/07/21 10:49:29;;;;;;;1.20;0.50;;;28.50;74.50;;;;;;2586458;54;20759;31
2023/07/21 10:52:11;;;;;;;1.15;0.40;;;28.60;74.30;;;;;;2586303;54;20891;31
2023/07/21 10:57:36;;;;;;;3.55;0.60;;;28.40;73.90;;;;;;2605210;46;20033;31
2023/07/21 11:00:19;;;;;;;0.70;0.30;;;28.50;74.00;;;;;;2586212;54;20022;31
2023/07/21 11:02:54;;;;;;;3.43;0.70;;;28.50;71.70;;;;;;2585950;54;20061;31
2023/07/21 11:05:50;;;;;;;1.30;0.60;;;28.60;72.60;;;;;;2585717;54;20034;31
2023/07/21 11:08:31;;;;;;;1.27;0.38;;;28.70;72.50;;;;;;2586294;54;20029;31
2023/07/21 11:11:30;;;;;;;0.75;0.35;;;28.70;71.50;;;;;;2586482;54;20890;31
2023/07/21 11:14:07;;;;;;;1.90;0.40;;;28.70;71.60;;;;;;2593233;46;20913;31
2023/07/21 11:16:46;;;;;;;1.75;0.60;;;28.70;71.40;;;;;;2604944;46;20821;31
2023/07/21 11:19:25;;;;;;;1.07;0.40;;;28.70;72.50;;;;;;2585318;54;20034;31
2023/07/21 11:25:18;;;;;;;2.33;0.43;;;28.60;72.60;;;;;;2603615;54;20027;31
2023/07/21 11:30:33;;;;;;;1.05;0.50;;;28.20;72.90;;;;;;2604702;47;19953;31
2023/07/21 11:33:24;;;;;;;0.80;0.30;;;28.00;73.50;;;;;;2586114;54;20735;31
2023/07/21 11:36:13;;;;;;;2.00;0.40;;;27.70;73.60;;;;;;2586040;54;20023;31
2023/07/21 11:39:07;;;;;;;1.30;0.30;;;27.60;74.00;;;;;;2586386;54;20815;31
2023/07/21 11:41:57;;;;;;;4.72;0.80;;;27.50;74.80;;;;;;2587357;47;20054;31
2023/07/21 11:44:44;;;;;;;1.75;0.50;;;27.60;74.80;;;;;;2584989;54;19935;31
2023/07/21 11:47:31;;;;;;;1.27;0.40;;;27.70;75.50;;;;;;2600748;47;20031;31
2023/07/21 11:50:23;;;;;;;1.00;0.50;;;27.70;74.80;;;;;;2610860;47;20033;31
2023/07/21 11:53:40;;;;;;;2.25;0.30;;;27.70;75.50;;;;;;2586099;54;20023;31
2023/07/21 11:56:37;;;;;;;1.42;0.60;;;27.60;73.40;;;;;;2586054;54;20171;31
2023/07/21 11:59:29;;;;;;;1.63;0.40;;;27.50;74.70;;;;;;2586296;54;20772;31
2023/07/21 12:02:18;;;;;;;1.55;0.68;;;27.60;72.70;;;;;;2586551;54;20859;31
2023/07/21 12:05:05;;;;;;;2.13;0.40;;;27.60;76.30;;;;;;2585313;54;20022;31
2023/07/21 12:07:46;;;;;;;2.13;0.50;;;27.50;74.00;;;;;;2604014;47;20905;31
2023/07/21 12:10:29;;;;;;;0.90;0.50;;;27.40;75.20;;;;;;2586069;54;20243;31
2023/07/21 12:13:08;;;;;;;2.80;0.40;;;27.50;74.80;;;;;;2604145;47;20047;31
2023/07/21 12:15:52;;;;;;;1.00;0.40;;;27.50;74.50;;;;;;2586039;54;20915;31
2023/07/21 12:18:45;;;;;;;2.80;0.30;;;27.50;75.30;;;;;;2586620;47;20054;31
2023/07/21 12:21:30;;;;;;;0.95;0.50;;;27.50;74.70;;;;;;2587091;54;20969;31
2023/07/21 12:24:29;;;;;;;2.57;0.40;;;27.40;73.50;;;;;;2587099;54;20154;31
2023/07/21 12:27:10;;;;;;;1.40;0.50;;;27.50;74.50;;;;;;2605264;46;20234;31
2023/07/21 12:29:49;;;;;;;2.60;0.50;;;27.50;74.70;;;;;;2586547;54;20055;31
2023/07/21 12:32:30;;;;;;;1.95;0.40;;;27.40;75.00;;;;;;2586584;54;20238;31
2023/07/21 12:35:19;;;;;;;2.13;0.45;;;27.40;75.00;;;;;;2604847;46;20162;31
2023/07/21 12:38:07;;;;;;;1.55;0.43;;;27.40;74.80;;;;;;2586542;54;20031;31
2023/07/21 12:40:44;;;;;;;1.00;0.55;;;27.30;75.60;;;;;;2586870;54;20848;31
2023/07/21 12:43:25;;;;;;;1.00;0.40;;;27.30;76.40;;;;;;2605555;46;20955;31
2023/07/21 12:46:06;;;;;;;2.97;0.68;;;27.30;75.70;;;;;;2597522;46;21114;31
2023/07/21 12:49:05;;;;;;;1.38;0.57;;;27.40;75.90;;;;;;2605108;46;20033;31
2023/07/21 12:51:47;;;;;;;1.80;0.50;;;27.40;74.90;;;;;;2586841;54;20089;31
2023/07/21 12:54:38;;;;;;;1.13;0.50;;;27.30;73.50;;;;;;2683556;39;21491;31
2023/07/21 12:57:16;;;;;;;2.35;0.50;;;27.30;73.40;;;;;;2586097;54;20756;31
2023/07/21 13:00:00;;;;;;;3.95;0.80;;;27.30;76.00;;;;;;2586480;54;21550;31
2023/07/21 13:02:41;;;;;;;1.00;0.50;;;27.40;76.00;;;;;;2587041;54;20902;31
2023/07/21 13:05:27;;;;;;;1.40;0.50;;;27.40;76.60;;;;;;2605283;46;20239;31
2023/07/21 13:08:13;;;;;;;0.60;0.40;;;27.50;74.40;;;;;;2586808;54;20026;31
2023/07/21 13:11:09;;;;;;;1.20;0.60;;;27.60;74.30;;;;;;2586937;54;20324;31
2023/07/21 13:14:10;;;;;;;0.70;0.40;;;27.70;72.90;;;;;;2586264;54;20875;31
2023/07/21 13:19:48;;;;;;;1.67;0.68;;;27.60;72.50;;;;;;2586141;54;20037;31
2023/07/21 13:22:59;;;;;;;2.15;0.60;;;27.50;73.20;;;;;;2585789;54;20031;31
2023/07/21 13:25:59;;;;;;;1.85;0.50;;;27.40;73.70;;;;;;2587811;54;20731;31
2023/07/21 13:31:20;;;;;;;2.67;0.50;;;27.40;74.00;;;;;;2605087;46;20031;31
2023/07/21 13:34:02;;;;;;;4.43;0.50;;;27.40;73.40;;;;;;2586915;54;20030;31
2023/07/21 13:36:52;;;;;;;2.50;0.50;;;27.40;73.70;;;;;;2586413;54;20773;31
2023/07/21 13:47:51;;;;;;;2.13;0.50;;;27.40;73.60;;;;;;2586530;54;20089;31
2023/07/21 13:50:34;;;;;;;1.10;0.47;;;27.40;73.30;;;;;;2586256;54;20072;31
2023/07/21 13:56:03;;;;;;;2.55;0.70;;;27.40;75.50;;;;;;2585766;54;20842;31
2023/07/21 13:58:46;;;;;;;0.98;0.40;;;27.50;75.00;;;;;;2605190;46;20940;31
2023/07/21 14:04:00;;;;;;;4.15;0.60;;;27.50;74.10;;;;;;2604946;46;20029;31
2023/07/21 14:06:54;;;;;;;2.72;0.70;;;27.50;74.00;;;;;;2605018;46;20022;31
2023/07/21 14:09:45;;;;;;;1.40;0.50;;;27.40;74.80;;;;;;2604869;46;20882;31
2023/07/21 14:12:29;;;;;;;1.42;0.70;;;27.40;73.90;;;;;;2586361;54;20089;31
2023/07/21 14:18:12;;;;;;;1.85;0.60;;;27.30;75.20;;;;;;2585872;54;20034;31
2023/07/21 14:20:59;;;;;;;1.37;0.40;;;27.30;74.80;;;;;;2586269;54;20040;31
2023/07/21 14:23:35;;;;;;;1.63;0.73;;;27.20;75.60;;;;;;2586496;54;20030;31
2023/07/21 14:26:16;;;;;;;1.45;0.60;;;27.10;75.30;;;;;;2702813;39;21838;31
2023/07/21 14:29:00;;;;;;;1.20;0.50;;;27.10;75.70;;;;;;2605039;46;20053;31
2023/07/21 14:31:39;;;;;;;1.80;0.70;;;27.00;75.80;;;;;;2586411;54;20872;31
2023/07/21 14:37:25;;;;;;;2.25;0.90;;;26.90;76.60;;;;;;2586305;54;20033;31
2023/07/21 14:40:17;;;;;;;5.90;1.20;;;26.80;76.40;;;;;;2586544;54;20109;31
2023/07/21 14:46:08;;;;;;;1.85;0.60;;;26.70;76.70;;;;;;2603585;54;20022;31
2023/07/21 14:48:50;;;;;;;1.75;0.50;;;26.60;77.00;;;;;;2604605;46;20822;31
2023/07/21 14:51:32;;;;;;;2.10;0.60;;;26.60;76.90;;;;;;2586277;54;20764;31
2023/07/21 14:54:08;;;;;;;1.90;0.55;;;26.60;77.60;;;;;;2585886;54;20037;31
2023/07/21 14:59:56;;;;;;;2.20;0.50;;;26.50;79.50;;;;;;2584929;54;20832;31
2023/07/21 15:02:37;;;;;;;2.17;0.70;;;26.40;79.20;;;;;;2586060;54;20143;31
2023/07/21 15:17:33;;;;;;;2.85;0.85;;;26.10;79.40;;;;;;2585619;54;20085;31
2023/07/21 15:20:19;;;;;;;6.57;1.37;;;26.10;80.70;;;;;;2584911;54;20054;31
2023/07/21 15:23:00;;;;;;;3.03;0.90;;;26.00;80.20;;;;;;2584895;54;20027;31
2023/07/21 15:25:38;;;;;;;2.50;0.65;;;26.00;80.50;;;;;;2585986;54;20866;31
2023/07/21 15:30:49;;;;;;;4.95;0.80;;;26.00;80.90;;;;;;2585627;54;20180;31
2023/07/21 15:33:35;;;;;;;5.95;0.70;;;25.90;81.70;;;;;;2585902;54;20026;31
2023/07/21 15:36:16;;;;;;;3.70;0.60;;;25.80;82.00;;;;;;2586170;54;21021;31
2023/07/21 15:38:51;;;;;;;1.10;0.60;;;25.70;82.10;;;;;;2586130;54;20843;31
2023/07/21 15:41:24;;;;;;;1.07;0.60;;;25.70;82.00;;;;;;2601085;47;20882;31
2023/07/21 15:44:03;;;;;;;2.15;0.60;;;25.60;81.90;;;;;;2586192;54;20036;31
2023/07/21 15:46:37;;;;;;;5.88;0.85;;;25.50;82.50;;;;;;2604343;47;20026;31
2023/07/21 15:49:17;;;;;;;1.13;0.70;;;25.50;83.00;;;;;;2586126;54;21278;31
2023/07/21 15:51:59;;;;;;;4.38;0.60;;;25.50;82.90;;;;;;2588202;47;20018;31
2023/07/21 15:54:41;;;;;;;1.00;0.85;;;25.50;82.80;;;;;;2586889;54;20027;31
2023/07/21 15:57:15;;;;;;;3.05;0.70;;;25.50;83.20;;;;;;2585781;54;20174;31
2023/07/21 15:59:48;;;;;;;0.90;0.60;;;25.50;82.60;;;;;;2586634;54;20848;31
2023/07/21 16:02:28;;;;;;;1.43;0.60;;;25.50;82.90;;;;;;2598408;46;20945;31
2023/07/21 16:05:11;;;;;;;3.58;0.70;;;25.50;82.80;;;;;;2586402;54;20022;31
2023/07/21 16:07:46;;;;;;;5.80;1.30;;;25.50;83.00;;;;;;2586762;54;20863;31
2023/07/21 16:10:21;;;;;;;;;;;25.40;82.90;;;;;;2586455;54;20026;31
2023/07/21 16:12:59;;;;;;;2.65;1.05;;;25.40;83.40;;;;;;2585848;54;19939;31
2023/07/21 16:15:35;;;;;;;1.55;0.70;;;25.40;83.50;;;;;;2585950;54;20964;31
2023/07/21 16:18:10;;;;;;;1.95;0.50;;;25.30;83.40;;;;;;2604538;46;20034;31
2023/07/21 16:20:57;;;;;;;1.88;1.00;;;25.30;83.70;;;;;;2586485;54;20990;31
2023/07/21 16:23:34;;;;;;;2.75;0.60;;;25.30;85.00;;;;;;2586652;54;20031;31
2023/07/21 16:26:18;;;;;;;2.88;0.85;;;25.20;88.30;;;;;;2586453;54;20033;31